createdAt,value
2022-09-12T00:03:21.977Z,48.97
2022-09-12T00:08:29.152Z,49.22
2022-09-12T00:13:40.847Z,49.23
2022-09-12T00:18:43.559Z,49.25
2022-09-12T00:23:50.744Z,49.29
2022-09-12T00:28:58.030Z,49.27
2022-09-12T00:34:05.277Z,49.23
2022-09-12T00:39:12.471Z,49.20
2022-09-12T00:44:19.781Z,49.25
2022-09-12T00:49:26.860Z,49.22
2022-09-12T00:54:34.068Z,49.26
2022-09-12T00:59:41.298Z,49.40
2022-09-12T01:04:48.515Z,49.42
2022-09-12T01:09:55.695Z,49.42
2022-09-12T01:15:02.910Z,49.45
2022-09-12T01:20:10.090Z,49.44
2022-09-12T01:25:17.252Z,49.49
2022-09-12T01:30:24.463Z,49.42
2022-09-12T01:35:31.685Z,49.37
2022-09-12T01:40:40.867Z,49.36
2022-09-12T01:45:48.208Z,49.36
2022-09-12T01:50:55.584Z,49.36
2022-09-12T01:56:02.809Z,49.35
2022-09-12T02:01:10.090Z,49.26
2022-09-12T02:06:17.146Z,49.13
2022-09-12T02:11:24.389Z,49.03
2022-09-12T02:16:31.648Z,49.01
2022-09-12T02:21:38.833Z,48.95
2022-09-12T02:26:46.069Z,48.77
2022-09-12T02:31:53.301Z,48.70
2022-09-12T02:37:00.508Z,48.62
2022-09-12T02:42:07.760Z,48.50
2022-09-12T02:47:15.016Z,48.51
2022-09-12T02:52:22.237Z,48.48
2022-09-12T02:57:29.439Z,48.46
2022-09-12T03:02:36.635Z,48.36
2022-09-12T03:07:43.774Z,48.30
2022-09-12T03:12:50.946Z,48.23
2022-09-12T03:17:58.230Z,48.02
2022-09-12T03:23:05.461Z,47.92
2022-09-12T03:28:12.665Z,48.05
2022-09-12T03:33:19.909Z,47.91
2022-09-12T03:38:27.039Z,47.86
2022-09-12T03:43:34.290Z,47.84
2022-09-12T03:48:41.669Z,47.84
2022-09-12T03:53:48.710Z,47.75
2022-09-12T03:58:55.884Z,47.68
2022-09-12T04:04:03.072Z,47.47
2022-09-12T04:09:10.327Z,47.37
2022-09-12T04:14:17.563Z,47.44
2022-09-12T04:19:24.836Z,47.42
2022-09-12T04:24:31.986Z,47.42
2022-09-12T04:29:39.191Z,47.31
2022-09-12T04:34:46.428Z,47.30
2022-09-12T04:39:53.716Z,47.25
2022-09-12T04:45:00.846Z,47.17
2022-09-12T04:50:08.165Z,47.09
2022-09-12T04:55:15.379Z,47.04
2022-09-12T05:00:22.562Z,46.87
2022-09-12T05:05:29.799Z,46.97
2022-09-12T05:10:37.037Z,47.00
2022-09-12T05:15:44.283Z,46.94
2022-09-12T05:20:51.495Z,46.83
2022-09-12T05:25:58.692Z,46.68
2022-09-12T05:31:05.919Z,46.65
2022-09-12T05:36:13.116Z,46.41
2022-09-12T05:41:24.674Z,46.65
2022-09-12T05:46:27.526Z,46.68
2022-09-12T05:51:34.754Z,46.62
2022-09-12T05:56:41.915Z,46.60
2022-09-12T06:01:49.319Z,46.52
2022-09-12T06:06:56.324Z,46.54
2022-09-12T06:12:03.518Z,46.49
2022-09-12T06:17:10.723Z,46.55
2022-09-12T06:22:17.925Z,46.56
2022-09-12T06:27:25.143Z,46.75
2022-09-12T06:32:32.342Z,46.17
2022-09-12T06:37:39.589Z,45.72
2022-09-12T06:42:46.725Z,45.88
2022-09-12T06:47:53.908Z,45.83
2022-09-12T06:53:01.186Z,45.74
2022-09-12T06:58:08.677Z,45.49
2022-09-12T07:03:15.879Z,45.69
2022-09-12T07:08:23.103Z,45.78
2022-09-12T07:13:30.288Z,46.17
2022-09-12T07:18:37.461Z,46.25
2022-09-12T07:23:44.825Z,46.29
2022-09-12T07:28:51.914Z,46.20
2022-09-12T07:33:59.124Z,46.20
2022-09-12T07:39:06.347Z,46.30
2022-09-12T07:44:13.527Z,46.37
2022-09-12T07:49:20.723Z,46.27
2022-09-12T07:54:27.995Z,46.22
2022-09-12T07:59:52.030Z,46.38
2022-09-12T08:04:42.340Z,46.55
2022-09-12T08:09:49.573Z,46.74
2022-09-12T08:14:56.715Z,47.59
2022-09-12T08:20:03.955Z,48.20
2022-09-12T08:25:11.160Z,48.04
2022-09-12T08:30:18.368Z,48.12
2022-09-12T08:35:25.596Z,47.91
2022-09-12T08:40:32.787Z,47.96
2022-09-12T08:45:40.071Z,48.07
2022-09-12T08:50:49.853Z,48.13
2022-09-12T08:55:54.501Z,48.52
2022-09-12T09:01:01.615Z,48.26
2022-09-12T09:06:08.826Z,48.36
2022-09-12T09:11:16.009Z,48.35
2022-09-12T09:16:23.142Z,48.46
2022-09-12T09:21:30.324Z,47.59
2022-09-12T09:26:37.471Z,48.10
2022-09-12T09:31:44.725Z,48.42
2022-09-12T09:36:51.906Z,48.58
2022-09-12T09:41:59.141Z,48.78
2022-09-12T09:47:06.309Z,48.79
2022-09-12T09:52:13.507Z,46.65
2022-09-12T09:57:20.768Z,46.64
2022-09-12T10:02:28.029Z,45.86
2022-09-12T10:07:35.170Z,45.84
2022-09-12T10:12:42.424Z,45.56
2022-09-12T10:17:49.562Z,46.99
2022-09-12T10:22:56.714Z,45.36
2022-09-12T10:28:03.956Z,47.00
2022-09-12T10:33:11.181Z,45.95
2022-09-12T10:38:18.424Z,47.66
2022-09-12T10:43:25.606Z,46.21
2022-09-12T10:48:32.787Z,46.07
2022-09-12T10:53:39.973Z,46.71
2022-09-12T10:58:47.177Z,46.70
2022-09-12T11:03:54.315Z,46.45
2022-09-12T11:09:01.495Z,46.85
2022-09-12T11:14:08.666Z,45.90
2022-09-12T11:19:15.803Z,47.15
2022-09-12T11:24:23.045Z,46.94
2022-09-12T11:29:30.279Z,47.46
2022-09-12T11:34:37.419Z,47.66
2022-09-12T11:39:44.748Z,47.06
2022-09-12T11:44:52.055Z,46.97
2022-09-12T11:49:59.274Z,47.49
2022-09-12T11:55:06.495Z,47.28
2022-09-12T12:00:13.686Z,47.52
2022-09-12T12:05:20.881Z,47.75
2022-09-12T12:10:28.052Z,48.19
2022-09-12T12:15:35.321Z,48.48
2022-09-12T12:20:42.478Z,48.56
2022-09-12T12:25:49.679Z,48.78
2022-09-12T12:30:56.942Z,48.79
2022-09-12T12:36:04.083Z,49.02
2022-09-12T12:41:11.287Z,49.17
2022-09-12T12:46:18.505Z,49.21
2022-09-12T12:51:25.591Z,49.33
2022-09-12T12:56:32.797Z,49.43
2022-09-12T13:01:40.149Z,49.35
2022-09-12T13:06:47.209Z,49.48
2022-09-12T13:11:54.363Z,49.66
2022-09-12T13:17:01.637Z,49.81
2022-09-12T13:22:08.850Z,49.85
2022-09-12T13:27:16.022Z,50.01
2022-09-12T13:32:23.253Z,50.00
2022-09-12T13:37:30.435Z,50.16
2022-09-12T13:42:37.598Z,50.00
2022-09-12T13:47:44.877Z,49.97
2022-09-12T13:52:52.150Z,50.07
2022-09-12T13:57:59.352Z,50.19
2022-09-12T14:03:06.564Z,50.36
2022-09-12T14:08:13.765Z,50.11
2022-09-12T14:13:20.973Z,50.11
2022-09-12T14:18:28.194Z,50.13
2022-09-12T14:23:35.421Z,50.04
2022-09-12T14:28:42.664Z,49.71
2022-09-12T14:33:49.846Z,49.55
2022-09-12T14:38:57.020Z,49.53
2022-09-12T14:44:04.207Z,49.42
2022-09-12T14:49:11.495Z,49.45
2022-09-12T14:54:18.638Z,49.44
2022-09-12T14:59:25.815Z,49.22
2022-09-12T15:04:33.096Z,49.11
2022-09-12T15:09:45.571Z,49.03
2022-09-12T15:14:47.427Z,49.31
2022-09-12T15:19:54.874Z,49.36
2022-09-12T15:25:02.115Z,49.45
2022-09-12T15:30:09.315Z,49.45
2022-09-12T15:35:16.558Z,49.56
2022-09-12T15:40:23.687Z,49.38
2022-09-12T15:45:30.869Z,49.32
2022-09-12T15:50:38.113Z,49.03
2022-09-12T15:55:45.270Z,48.96
2022-09-12T16:00:52.503Z,49.00
2022-09-12T16:05:59.883Z,48.98
2022-09-12T16:11:06.878Z,49.27
2022-09-12T16:16:14.180Z,49.34
2022-09-12T16:21:21.401Z,49.50
2022-09-12T16:26:28.481Z,49.54
2022-09-12T16:31:35.719Z,49.69
2022-09-12T16:36:43.044Z,49.84
2022-09-12T16:41:50.129Z,49.84
2022-09-12T16:46:57.392Z,49.85
2022-09-12T16:52:04.681Z,49.90
2022-09-12T16:57:11.936Z,50.03
2022-09-12T17:02:19.185Z,50.15
2022-09-12T17:07:26.364Z,50.11
2022-09-12T17:12:33.540Z,50.41
2022-09-12T17:17:40.750Z,51.03
2022-09-12T17:22:48.021Z,51.10
2022-09-12T17:27:55.229Z,51.43
2022-09-12T17:33:02.481Z,51.29
2022-09-12T17:38:12.288Z,51.34
2022-09-12T17:43:17.201Z,51.83
2022-09-12T17:48:24.557Z,52.14
2022-09-12T17:53:31.840Z,51.96
2022-09-12T17:58:39.307Z,52.17
2022-09-12T18:03:46.923Z,51.99
2022-09-12T18:08:54.302Z,51.90
2022-09-12T18:14:01.657Z,51.89
2022-09-12T18:19:08.904Z,52.07
2022-09-12T18:24:16.378Z,52.36
2022-09-12T18:29:24.079Z,52.34
2022-09-12T18:34:31.790Z,52.46
2022-09-12T18:39:39.489Z,52.51
2022-09-12T18:44:46.912Z,52.39
2022-09-12T18:49:54.529Z,52.21
2022-09-12T18:55:02.175Z,52.28
2022-09-12T19:00:12.427Z,52.20
2022-09-12T19:05:17.385Z,52.27
2022-09-12T19:10:24.907Z,52.24
2022-09-12T19:15:32.694Z,52.26
2022-09-12T19:20:40.116Z,52.21
2022-09-12T19:25:47.833Z,51.97
2022-09-12T19:30:55.355Z,51.96
2022-09-12T19:36:02.618Z,51.62
2022-09-12T19:41:13.455Z,51.50
2022-09-12T19:46:17.252Z,51.37
2022-09-12T19:51:25.044Z,51.45
2022-09-12T19:56:32.902Z,51.30
2022-09-12T20:01:40.505Z,51.33
2022-09-12T20:06:47.680Z,51.49
2022-09-12T20:11:54.971Z,50.84
2022-09-12T20:17:02.133Z,51.19
2022-09-12T20:22:09.379Z,51.29
2022-09-12T20:27:16.714Z,51.29
2022-09-12T20:32:23.767Z,51.09
2022-09-12T20:37:31.009Z,50.71
2022-09-12T20:42:38.236Z,50.42
2022-09-12T20:47:45.459Z,50.00
2022-09-12T20:52:52.668Z,49.52
2022-09-12T20:57:59.905Z,49.18
2022-09-12T21:03:07.159Z,48.69
2022-09-12T21:08:14.376Z,48.27
2022-09-12T21:13:21.611Z,48.23
2022-09-12T21:18:28.804Z,48.01
2022-09-12T21:23:36.565Z,47.87
2022-09-12T21:28:44.147Z,47.90
2022-09-12T21:33:51.249Z,47.59
2022-09-12T21:38:58.683Z,47.05
2022-09-12T21:44:05.901Z,46.72
2022-09-12T21:49:13.076Z,46.65
2022-09-12T21:54:20.300Z,46.38
2022-09-12T21:59:27.682Z,45.96
2022-09-12T22:04:34.795Z,45.91
2022-09-12T22:09:42.067Z,45.41
2022-09-12T22:14:49.378Z,45.20
2022-09-12T22:19:56.462Z,44.92
2022-09-12T22:25:03.692Z,44.53
2022-09-12T22:30:10.914Z,44.45
2022-09-12T22:35:18.067Z,44.25
2022-09-12T22:40:25.192Z,44.01
2022-09-12T22:45:32.439Z,44.20
2022-09-12T22:50:39.637Z,44.04
2022-09-12T22:55:46.836Z,44.02
2022-09-12T23:00:54.143Z,44.10
2022-09-12T23:06:01.237Z,43.88
2022-09-12T23:11:08.456Z,43.74
2022-09-12T23:16:15.724Z,43.90
2022-09-12T23:21:22.834Z,43.56
2022-09-12T23:26:30.048Z,43.59
2022-09-12T23:31:37.475Z,43.47
2022-09-12T23:36:44.574Z,43.31
2022-09-12T23:41:51.770Z,43.21
2022-09-12T23:46:59.734Z,43.29
2022-09-12T23:52:06.983Z,43.38
2022-09-12T23:57:14.236Z,43.47
